Keyapaha, South Dakota
Current Conditions -  °F | °C
As of 8:53 AM on Thursday 30 Oct 2014 (Local Time) from KICR Reporting Station
Clear Clear  
Wind Chill: 34°   Ceiling: Unl
Heat Index: 41°   Visibility: 10mi
Dew Point: 34°   Wind: 12mph
Humidity: 76%   Direction: 320°NW
Pressure: 30.18"   Gusts: NA
Location:  43.2923°N, 99.8934°W
Report Text: KICR 301353Z AUTO 32010KT 10SM CLR 05/01 A3018 RMK AO2 SLP224 T00500011
Loading
Personal Weather Stations






























Interactive Weather Map
Tropical Storm Tracking
New forecast layout! Learn more

10-Day Weather Forecast

Advertisements
Track Severe Weather on mobile